Time;durP1;ratioP1;P1;durP2;ratioP2;P2;SDS_P1;SDS_P2;PMS_P1;PMS_P2;Temp;Humidity;BMP_temperature;BMP_pressure;BME280_temperature;BME280_humidity;BME280_pressure;Samples;Min_cycle;Max_cycle;Signal;HPM_P1;HPM_P2
2021/12/13 00:04:10;;;;;;;25.75;9.38;;;;;;;-147.53;100.00;57128.34;15295729;19;20018;-61
2021/12/13 00:09:17;;;;;;;30.52;9.52;;;;;;;-147.53;100.00;57128.34;15296030;19;20027;-61
2021/12/13 00:14:29;;;;;;;26.95;9.15;;;;;;;-147.53;100.00;57128.34;15292227;19;20023;-61
2021/12/13 00:19:36;;;;;;;30.17;9.48;;;;;;;-147.53;100.00;57128.34;15293144;19;20098;-61
2021/12/13 00:24:41;;;;;;;31.08;10.63;;;;;;;7.50;100.00;101979.88;15293479;19;20495;-61
2021/12/13 00:30:33;;;;;;;26.80;9.63;;;;;;;8.72;100.00;102117.81;15294867;19;20419;-61
2021/12/13 00:35:45;;;;;;;26.33;9.95;;;;;;;8.65;100.00;102121.88;15189028;19;2004248;-61
2021/12/13 00:40:53;;;;;;;29.23;10.50;;;;;;;8.67;100.00;102110.66;15293491;19;20022;-61
2021/12/13 00:46:00;;;;;;;31.75;11.23;;;;;;;8.71;100.00;102118.63;15290778;19;20021;-61
2021/12/13 00:51:08;;;;;;;27.42;10.13;;;;;;;8.75;100.00;102115.34;15294145;19;20351;-61
2021/12/13 00:56:51;;;;;;;33.15;10.40;;;;;;;8.86;100.00;102132.41;15289625;19;20025;-61
2021/12/13 01:01:57;;;;;;;29.55;10.25;;;;;;;8.82;100.00;102131.38;15290919;19;20074;-61
2021/12/13 01:07:17;;;;;;;27.75;9.98;;;;;;;8.73;100.00;102128.34;15294570;19;20010;-61
2021/12/13 01:12:23;;;;;;;31.70;9.95;;;;;;;8.73;100.00;102136.16;15295403;19;20023;-61
2021/12/13 01:17:57;;;;;;;26.60;10.60;;;;;;;8.79;100.00;102146.00;15290925;19;20213;-60
2021/12/13 01:23:12;;;;;;;32.33;10.73;;;;;;;8.75;100.00;102139.78;15291507;19;20470;-61
2021/12/13 01:28:26;;;;;;;35.70;12.35;;;;;;;8.81;100.00;102152.19;15291447;19;20524;-60
2021/12/13 01:33:32;;;;;;;36.90;11.40;;;;;;;8.81;100.00;102149.56;15289679;19;20183;-61
2021/12/13 01:38:40;;;;;;;30.65;10.52;;;;;;;8.78;100.00;102155.56;15291932;19;20011;-61
2021/12/13 01:43:48;;;;;;;33.67;10.77;;;;;;;8.76;100.00;102151.97;15291131;19;20019;-60
2021/12/13 01:48:52;;;;;;;32.05;9.95;;;;;;;8.76;100.00;102161.53;15291840;19;20010;-61
2021/12/13 01:54:21;;;;;;;24.25;9.10;;;;;;;8.80;100.00;102163.47;15289349;19;20085;-62
2021/12/13 02:04:42;;;;;;;32.17;10.18;;;;;;;8.79;100.00;102166.91;15287642;19;20032;-61
2021/12/13 02:09:44;;;;;;;29.23;9.07;;;;;;;8.76;100.00;102172.88;15290828;19;20031;-60
2021/12/13 02:20:31;;;;;;;31.02;10.57;;;;;;;8.80;100.00;102172.19;15182814;19;2004565;-61
2021/12/13 02:25:38;;;;;;;31.50;10.60;;;;;;;8.76;100.00;102172.88;15286142;19;20040;-61
2021/12/13 02:30:49;;;;;;;27.90;10.30;;;;;;;8.80;100.00;102179.16;15297039;19;20014;-61
2021/12/13 02:35:58;;;;;;;27.25;10.63;;;;;;;8.79;100.00;102169.53;15300107;19;20089;-61
2021/12/13 02:41:02;;;;;;;34.22;11.55;;;;;;;8.77;100.00;102169.44;15298727;19;20031;-60
2021/12/13 02:46:04;;;;;;;32.80;12.20;;;;;;;8.77;100.00;102166.84;15297574;19;20027;-61
2021/12/13 02:51:13;;;;;;;34.55;11.00;;;;;;;8.77;100.00;102184.22;15301263;19;20034;-61
2021/12/13 02:56:20;;;;;;;33.08;11.70;;;;;;;8.75;100.00;102191.09;15302379;19;20014;-61
2021/12/13 03:01:33;;;;;;;41.00;14.00;;;;;;;8.80;100.00;102187.00;15300029;19;20015;-61
2021/12/13 03:06:41;;;;;;;42.70;13.65;;;;;;;8.85;100.00;102181.13;15300854;19;20203;-62
2021/12/13 03:11:44;;;;;;;38.45;12.65;;;;;;;8.86;100.00;102176.81;15301449;19;20102;-61
2021/12/13 03:16:55;;;;;;;52.97;16.13;;;;;;;8.90;100.00;102183.94;15302260;19;20024;-61
2021/12/13 03:22:22;;;;;;;41.83;13.82;;;;;;;8.90;100.00;102186.56;15296934;19;20078;-61
2021/12/13 03:27:57;;;;;;;44.28;12.68;;;;;;;8.93;100.00;102191.06;15297980;19;20022;-61
2021/12/13 03:33:03;;;;;;;43.72;14.15;;;;;;;8.93;100.00;102197.19;15300343;19;20014;-61
2021/12/13 03:38:34;;;;;;;55.10;16.33;;;;;;;8.93;100.00;102197.19;15297983;19;20019;-61
2021/12/13 03:43:46;;;;;;;51.15;15.40;;;;;;;8.94;100.00;102203.28;15294141;19;20088;-61
2021/12/13 03:48:50;;;;;;;52.15;14.20;;;;;;;8.94;100.00;102198.06;15299356;19;20015;-61
2021/12/13 03:53:55;;;;;;;57.92;14.88;;;;;;;8.94;100.00;102204.19;15296402;19;20340;-61
2021/12/13 03:59:04;;;;;;;41.85;14.55;;;;;;;8.96;100.00;102213.00;15296996;19;20038;-61
2021/12/13 04:04:12;;;;;;;45.27;13.60;;;;;;;8.97;100.00;102206.94;15294614;19;20015;-61
2021/12/13 04:09:14;;;;;;;46.28;13.00;;;;;;;8.94;100.00;102216.34;15297916;19;20066;-61
2021/12/13 04:14:24;;;;;;;50.80;13.00;;;;;;;8.94;100.00;102211.13;15295488;19;20015;-60
2021/12/13 04:19:26;;;;;;;40.57;13.00;;;;;;;8.93;100.00;102199.81;15296442;19;20014;-60
2021/12/13 04:24:35;;;;;;;33.05;11.65;;;;;;;8.97;100.00;102199.09;15294508;19;20457;-59
2021/12/13 04:29:40;;;;;;;35.97;13.50;;;;;;;8.96;100.00;102213.00;15295428;19;20036;-59
2021/12/13 04:34:42;;;;;;;31.70;11.57;;;;;;;8.93;100.00;102212.88;15294163;19;20421;-60
2021/12/13 04:39:52;;;;;;;32.65;10.43;;;;;;;8.88;100.00;102216.97;15293801;19;20011;-59
2021/12/13 04:44:57;;;;;;;30.75;10.40;;;;;;;8.89;100.00;102229.22;15292956;19;20027;-60
2021/12/13 04:50:16;;;;;;;33.35;10.48;;;;;;;8.90;100.00;102232.72;15295464;19;20413;-60
2021/12/13 04:55:25;;;;;;;29.40;10.48;;;;;;;8.93;100.00;102244.22;15186564;19;2004368;-60
2021/12/13 05:00:31;;;;;;;29.52;10.05;;;;;;;8.91;100.00;102240.63;15293157;19;20113;-58
2021/12/13 05:05:36;;;;;;;25.88;8.93;;;;;;;8.91;100.00;102247.56;15291879;19;20050;-60
2021/12/13 05:10:38;;;;;;;28.83;10.10;;;;;;;8.88;100.00;102250.91;15293266;19;20094;-60
2021/12/13 05:15:43;;;;;;;22.05;8.93;;;;;;;8.94;100.00;102243.38;15291217;19;20022;-60
2021/12/13 05:20:45;;;;;;;22.50;9.82;;;;;;;8.92;100.00;102252.88;15291517;19;20089;-59
2021/12/13 05:25:54;;;;;;;22.95;9.48;;;;;;;8.90;100.00;102249.25;15287013;19;20019;-60
2021/12/13 05:31:00;;;;;;;25.10;10.20;;;;;;;8.88;100.00;102250.03;15291036;19;20074;-60
2021/12/13 05:36:08;;;;;;;22.85;8.95;;;;;;;8.91;100.00;102256.28;15288480;19;20018;-60
2021/12/13 05:41:22;;;;;;;26.60;10.13;;;;;;;8.80;100.00;102265.34;15290291;19;20082;-59
2021/12/13 05:46:36;;;;;;;26.85;9.95;;;;;;;8.83;100.00;102265.50;15289877;19;20018;-59
2021/12/13 05:51:45;;;;;;;26.50;10.27;;;;;;;8.83;100.00;102268.09;15291201;19;20497;-60
2021/12/13 05:57:08;;;;;;;28.95;10.93;;;;;;;8.80;100.00;102273.19;15291045;19;20113;-60
2021/12/13 06:02:18;;;;;;;25.85;11.43;;;;;;;8.76;100.00;102285.19;15289034;19;20015;-60
2021/12/13 06:07:24;;;;;;;28.70;10.73;;;;;;;8.80;100.00;102288.84;15290111;19;20428;-60
2021/12/13 06:12:46;;;;;;;24.67;9.73;;;;;;;8.86;100.00;102278.69;15288287;19;20018;-60
2021/12/13 06:18:03;;;;;;;28.23;10.85;;;;;;;8.80;100.00;102289.75;15287632;19;20519;-60
2021/12/13 06:23:24;;;;;;;33.03;11.23;;;;;;;8.73;100.00;102294.59;15286334;19;20086;-60
2021/12/13 06:28:29;;;;;;;26.70;11.05;;;;;;;8.67;100.00;102303.00;15288185;19;20098;-60
2021/12/13 06:33:52;;;;;;;28.33;10.32;;;;;;;8.71;100.00;102306.66;15287377;19;20094;-60
2021/12/13 06:38:57;;;;;;;28.48;11.05;;;;;;;8.62;100.00;102326.28;15286931;19;20377;-60
2021/12/13 06:44:22;;;;;;;22.65;10.25;;;;;;;8.57;100.00;102319.97;15286804;19;20074;-60
2021/12/13 06:49:37;;;;;;;23.00;10.07;;;;;;;8.52;100.00;102328.38;15288770;19;20026;-60
2021/12/13 06:54:49;;;;;;;26.48;10.07;;;;;;;8.48;100.00;102336.06;15286704;19;20027;-59
2021/12/13 07:00:04;;;;;;;29.90;11.15;;;;;;;8.48;100.00;102329.91;15284525;19;20031;-60
2021/12/13 07:05:24;;;;;;;25.92;9.57;;;;;;;8.36;100.00;102331.88;15280084;19;20010;-60
2021/12/13 07:10:55;;;;;;;29.73;11.18;;;;;;;8.34;100.00;102338.75;15285310;19;20018;-60
2021/12/13 07:16:00;;;;;;;27.40;11.63;;;;;;;8.28;100.00;102347.16;15284558;19;20049;-60
2021/12/13 07:21:34;;;;;;;27.67;10.85;;;;;;;8.24;100.00;102351.34;15293277;19;20019;-60
2021/12/13 07:26:41;;;;;;;24.23;11.38;;;;;;;8.23;100.00;102357.34;15299924;19;20015;-59
2021/12/13 07:31:44;;;;;;;22.75;11.38;;;;;;;8.18;100.00;102364.06;15299004;19;20117;-60
2021/12/13 07:36:55;;;;;;;25.98;12.18;;;;;;;8.17;100.00;102367.47;15300986;19;20192;-59
2021/12/13 07:42:01;;;;;;;27.20;12.05;;;;;;;8.19;100.00;102371.06;15294906;19;20022;-60
2021/12/13 07:47:14;;;;;;;23.17;12.00;;;;;;;8.11;100.00;102364.56;15300325;19;20031;-60
2021/12/13 07:52:23;;;;;;;26.90;12.75;;;;;;;8.09;100.00;102371.38;15299953;19;20018;-59
2021/12/13 07:57:30;;;;;;;29.65;13.70;;;;;;;8.07;100.00;102368.69;15298598;19;20027;-59
2021/12/13 08:02:36;;;;;;;25.08;11.75;;;;;;;8.05;100.00;102374.66;15287289;19;20070;-60
2021/12/13 08:07:43;;;;;;;23.35;11.20;;;;;;;8.05;100.00;102383.38;15294797;19;20010;-59
2021/12/13 08:12:49;;;;;;;25.75;11.57;;;;;;;8.02;100.00;102390.16;15296157;19;20022;-59
2021/12/13 08:17:58;;;;;;;25.70;11.13;;;;;;;7.99;100.00;102389.97;15299328;19;20034;-59
2021/12/13 08:23:01;;;;;;;22.30;11.00;;;;;;;7.99;100.00;102396.09;15294658;19;20018;-60
2021/12/13 08:28:13;;;;;;;26.45;11.38;;;;;;;8.01;100.00;102406.63;15299091;19;20103;-60
2021/12/13 08:33:20;;;;;;;27.17;11.93;;;;;;;8.00;100.00;102410.03;15294124;19;20035;-60
2021/12/13 08:38:58;;;;;;;23.40;10.35;;;;;;;8.05;100.00;102396.44;15296937;19;20299;-60
2021/12/13 08:44:21;;;;;;;22.52;9.93;;;;;;;8.09;100.00;102402.69;15290487;19;20010;-59
2021/12/13 08:49:46;;;;;;;24.13;11.93;;;;;;;8.02;100.00;102405.81;15293683;19;20410;-60
2021/12/13 08:55:13;;;;;;;24.60;11.52;;;;;;;8.01;100.00;102406.63;15293161;19;20032;-58
2021/12/13 09:00:21;;;;;;;32.47;13.10;;;;;;;8.06;100.00;102421.72;15188446;19;2004408;-60
2021/12/13 09:05:35;;;;;;;32.10;13.05;;;;;;;8.09;100.00;102420.97;15292438;19;20010;-60
2021/12/13 09:10:52;;;;;;;34.97;14.43;;;;;;;8.08;100.00;102414.84;15292462;19;20035;-60
2021/12/13 09:15:57;;;;;;;35.95;13.70;;;;;;;8.09;100.00;102420.97;15290488;19;20479;-60
2021/12/13 09:21:00;;;;;;;32.45;13.30;;;;;;;8.08;100.00;102433.13;15290934;19;20457;-60
2021/12/13 09:26:11;;;;;;;34.53;13.90;;;;;;;8.09;100.00;102426.16;15290815;19;20027;-59
2021/12/13 09:31:18;;;;;;;34.08;14.15;;;;;;;8.10;100.00;102435.81;15292488;19;20019;-60
2021/12/13 09:36:23;;;;;;;30.90;14.25;;;;;;;8.09;100.00;102442.75;15293101;19;20018;-59
2021/12/13 09:41:33;;;;;;;34.65;14.48;;;;;;;8.16;100.00;102433.53;15286972;19;20014;-60
2021/12/13 09:46:38;;;;;;;37.00;15.90;;;;;;;8.16;100.00;102437.84;15292009;19;20035;-60
2021/12/13 09:51:47;;;;;;;34.05;15.07;;;;;;;8.10;100.00;102434.09;15288389;19;20070;-60
2021/12/13 09:56:52;;;;;;;35.28;15.15;;;;;;;8.12;100.00;102442.91;15290668;19;20534;-60
2021/12/13 10:01:56;;;;;;;34.47;14.02;;;;;;;8.11;100.00;102435.00;15289739;19;20212;-60
2021/12/13 10:07:05;;;;;;;35.17;15.50;;;;;;;8.14;100.00;102440.38;15291519;19;20034;-60
2021/12/13 10:12:15;;;;;;;33.78;15.02;;;;;;;8.11;100.00;102446.31;15287430;19;20019;-61
2021/12/13 10:17:20;;;;;;;37.97;16.40;;;;;;;8.17;100.00;102448.38;15288494;19;20050;-60
2021/12/13 10:22:26;;;;;;;35.97;16.52;;;;;;;8.14;100.00;102445.59;15286354;19;20368;-60
2021/12/13 10:27:29;;;;;;;37.75;17.02;;;;;;;8.09;100.00;102441.81;15289952;19;20032;-60
2021/12/13 10:32:36;;;;;;;35.47;16.25;;;;;;;8.08;100.00;102437.44;15288022;19;20022;-60
2021/12/13 10:37:43;;;;;;;37.83;16.83;;;;;;;8.13;100.00;102434.25;15288394;19;20011;-59
2021/12/13 10:42:49;;;;;;;39.92;16.55;;;;;;;8.18;100.00;102437.13;15284738;19;20086;-60
2021/12/13 10:47:54;;;;;;;37.25;16.00;;;;;;;8.23;100.00;102445.19;15285241;19;20796;-60
2021/12/13 10:52:58;;;;;;;36.53;16.20;;;;;;;8.19;100.00;102433.69;15297729;19;20088;-60
2021/12/13 10:58:03;;;;;;;39.45;17.00;;;;;;;8.21;100.00;102437.28;15302092;19;20044;-60
2021/12/13 11:03:15;;;;;;;35.50;16.52;;;;;;;8.18;100.00;102437.13;15299957;19;20512;-60
2021/12/13 11:08:24;;;;;;;35.72;16.65;;;;;;;8.18;100.00;102431.91;15300270;19;20011;-59
2021/12/13 11:13:28;;;;;;;38.67;16.67;;;;;;;8.19;100.00;102419.75;15299607;19;20036;-60
2021/12/13 11:18:32;;;;;;;35.35;15.93;;;;;;;8.24;100.00;102416.56;15299483;19;20017;-59
2021/12/13 11:23:35;;;;;;;35.28;15.93;;;;;;;8.17;100.00;102419.66;15297162;19;20015;-60
2021/12/13 11:28:37;;;;;;;37.33;15.60;;;;;;;8.18;100.00;102434.53;15299350;19;20027;-60
2021/12/13 11:33:40;;;;;;;29.77;15.43;;;;;;;8.18;100.00;102424.09;15297275;19;20081;-60
2021/12/13 11:39:19;;;;;;;32.17;16.50;;;;;;;8.17;100.00;102430.09;15296438;19;20031;-60
2021/12/13 11:44:26;;;;;;;31.83;15.73;;;;;;;8.18;100.00;102425.78;15296693;19;20035;-60
2021/12/13 11:50:05;;;;;;;38.55;17.48;;;;;;;8.11;100.00;102424.56;15297329;19;20475;-59
2021/12/13 11:55:19;;;;;;;30.58;16.38;;;;;;;8.16;100.00;102416.97;15295090;19;20010;-60
2021/12/13 12:00:39;;;;;;;32.70;13.85;;;;;;;8.16;100.00;102428.31;15295966;19;20018;-60
2021/12/13 12:06:16;;;;;;;33.38;16.65;;;;;;;8.15;100.00;102418.66;15295392;19;20010;-60
2021/12/13 12:11:47;;;;;;;33.30;14.85;;;;;;;8.16;100.00;102417.88;15298138;19;20360;-61
2021/12/13 12:16:52;;;;;;;28.65;13.93;;;;;;;8.20;100.00;102416.34;15293412;19;20092;-60
2021/12/13 12:22:05;;;;;;;26.92;14.30;;;;;;;8.18;100.00;102403.22;15293801;19;20022;-60
2021/12/13 12:27:19;;;;;;;26.00;14.00;;;;;;;8.19;100.00;102402.38;15296686;19;20031;-60
2021/12/13 12:32:26;;;;;;;28.30;15.20;;;;;;;8.18;100.00;102407.50;15295218;19;20027;-60
2021/12/13 12:37:28;;;;;;;31.30;14.93;;;;;;;8.18;100.00;102413.66;15293156;19;20035;-59
2021/12/13 12:42:33;;;;;;;24.98;12.60;;;;;;;8.21;100.00;102408.59;15294111;19;20014;-59
2021/12/13 12:47:35;;;;;;;27.75;12.57;;;;;;;8.22;100.00;102402.53;15291338;19;20021;-60
2021/12/13 12:52:52;;;;;;;22.90;12.30;;;;;;;8.16;100.00;102404.81;15298193;19;20021;-61
2021/12/13 12:57:55;;;;;;;27.27;12.55;;;;;;;8.20;100.00;102405.91;15295031;19;20482;-60
2021/12/13 13:02:57;;;;;;;23.02;11.73;;;;;;;8.22;100.00;102406.88;15293707;19;20095;-60
2021/12/13 13:07:59;;;;;;;23.55;11.68;;;;;;;8.28;100.00;102405.47;15293140;19;20014;-60
2021/12/13 13:13:06;;;;;;;22.42;12.70;;;;;;;8.26;99.97;102406.22;15283945;19;20006;-60
2021/12/13 13:18:15;;;;;;;24.67;11.48;;;;;;;8.27;99.85;102401.06;15289140;19;20043;-59
2021/12/13 13:23:20;;;;;;;21.83;11.20;;;;;;;8.27;100.00;102414.13;15286235;19;20041;-60
2021/12/13 13:28:28;;;;;;;23.85;10.98;;;;;;;8.28;99.61;102418.50;15290673;19;20053;-60
2021/12/13 13:33:41;;;;;;;18.92;10.35;;;;;;;8.25;99.65;102418.34;15291579;19;20570;-60
2021/12/13 13:38:43;;;;;;;20.40;9.38;;;;;;;8.28;99.47;102421.13;15291611;19;20032;-60
2021/12/13 13:43:50;;;;;;;20.05;10.13;;;;;;;8.25;99.27;102410.50;15289060;19;20074;-59
2021/12/13 13:49:00;;;;;;;20.15;10.25;;;;;;;8.24;98.83;102419.19;15291803;19;20026;-60
2021/12/13 13:54:05;;;;;;;18.35;9.88;;;;;;;8.26;98.68;102417.53;15289808;19;20031;-60
2021/12/13 13:59:14;;;;;;;20.55;10.52;;;;;;;8.19;98.70;102412.81;15291424;19;20035;-59
2021/12/13 14:04:23;;;;;;;19.08;9.93;;;;;;;8.20;98.89;102417.22;15286772;19;20031;-60
2021/12/13 14:09:28;;;;;;;19.85;10.07;;;;;;;8.17;98.85;102429.19;15288611;19;20470;-60
2021/12/13 14:14:44;;;;;;;21.67;9.10;;;;;;;8.20;98.62;102422.44;15287063;19;20025;-60
2021/12/13 14:19:51;;;;;;;22.08;10.35;;;;;;;8.10;99.06;102427.97;15281811;19;20010;-60
2021/12/13 14:24:53;;;;;;;20.75;9.77;;;;;;;8.06;99.75;102420.78;15287264;19;20015;-61
2021/12/13 14:30:10;;;;;;;16.67;9.10;;;;;;;8.06;99.57;102432.16;15299999;19;20075;-61
2021/12/13 14:35:15;;;;;;;18.77;9.60;;;;;;;8.02;100.00;102424.97;15299795;19;20019;-61
2021/12/13 14:40:19;;;;;;;20.05;10.43;;;;;;;7.96;99.92;102425.53;15299677;19;20028;-59
2021/12/13 14:45:21;;;;;;;22.40;11.02;;;;;;;7.99;99.83;102436.94;15292766;19;20018;-60
2021/12/13 14:50:30;;;;;;;20.02;10.27;;;;;;;7.93;99.88;102438.41;15292549;19;20014;-59
2021/12/13 14:55:41;;;;;;;20.47;10.47;;;;;;;7.95;99.31;102443.69;15294149;19;20011;-61
2021/12/13 15:00:50;;;;;;;22.23;10.50;;;;;;;7.96;99.49;102435.06;15297412;19;20022;-60
2021/12/13 15:05:57;;;;;;;18.42;9.50;;;;;;;7.92;99.64;102444.41;15294255;19;20042;-60
2021/12/13 15:11:13;;;;;;;17.80;9.32;;;;;;;7.93;99.60;102442.72;15292890;19;20081;-60
2021/12/13 15:16:16;;;;;;;17.25;9.77;;;;;;;7.85;100.00;102425.75;15292483;19;20673;-60
2021/12/13 15:21:21;;;;;;;19.45;9.10;;;;;;;7.88;99.65;102438.97;15299437;19;20677;-60
2021/12/13 15:26:28;;;;;;;19.20;9.15;;;;;;;7.84;99.82;102447.44;15301904;19;20029;-60
2021/12/13 15:31:36;;;;;;;18.50;9.07;;;;;;;7.84;99.64;102445.72;15299292;19;20027;-60
2021/12/13 15:36:39;;;;;;;16.23;9.20;;;;;;;7.79;100.00;102447.16;15300039;19;20006;-60
2021/12/13 15:41:42;;;;;;;19.90;10.35;;;;;;;7.80;100.00;102433.31;15298348;19;20518;-60
2021/12/13 15:46:53;;;;;;;16.13;8.93;;;;;;;7.74;100.00;102440.81;15300615;19;20010;-60
2021/12/13 15:52:17;;;;;;;17.75;9.55;;;;;;;7.68;100.00;102432.66;15293164;19;20025;-60
2021/12/13 15:57:26;;;;;;;20.13;9.35;;;;;;;7.72;100.00;102437.25;15295540;19;20038;-60
2021/12/13 16:02:37;;;;;;;20.85;9.43;;;;;;;7.71;100.00;102432.81;15291321;19;20095;-61
2021/12/13 16:07:48;;;;;;;17.75;9.05;;;;;;;7.67;100.00;102436.06;15280772;19;20126;-60
2021/12/13 16:12:56;;;;;;;22.47;9.77;;;;;;;7.62;100.00;102433.22;15277105;19;20486;-61
2021/12/13 16:18:10;;;;;;;19.48;9.60;;;;;;;7.59;100.00;102438.25;15285298;19;20024;-60
2021/12/13 16:23:42;;;;;;;17.83;8.60;;;;;;;7.55;100.00;102426.78;15280214;19;20022;-59
2021/12/13 16:28:59;;;;;;;19.20;8.63;;;;;;;7.63;100.00;102428.88;15293386;19;20011;-60
2021/12/13 16:34:12;;;;;;;19.27;8.35;;;;;;;7.56;100.00;102433.75;15295444;19;20020;-60
2021/12/13 16:39:18;;;;;;;18.25;8.95;;;;;;;7.51;100.00;102435.22;15293191;19;20006;-59
2021/12/13 16:44:27;;;;;;;18.05;9.02;;;;;;;7.48;100.00;102428.97;15291155;19;20014;-61
2021/12/13 16:49:31;;;;;;;22.23;9.38;;;;;;;7.51;100.00;102434.34;15291377;19;20014;-60
2021/12/13 16:54:38;;;;;;;24.85;7.95;;;;;;;7.51;100.00;102429.13;15290459;19;20082;-60
2021/12/13 16:59:52;;;;;;;15.65;8.15;;;;;;;7.43;100.00;102440.00;15293533;19;20042;-61
2021/12/13 17:04:59;;;;;;;17.55;7.47;;;;;;;7.48;100.00;102448.09;15291979;19;20112;-60
2021/12/13 17:10:11;;;;;;;15.43;8.13;;;;;;;7.48;100.00;102445.47;15294584;19;20027;-60
2021/12/13 17:15:16;;;;;;;19.35;7.82;;;;;;;7.49;100.00;102443.75;15188008;19;2004186;-60
2021/12/13 17:20:33;;;;;;;19.70;8.43;;;;;;;7.44;100.00;102448.72;15291791;19;20022;-60
2021/12/13 17:25:36;;;;;;;14.63;7.70;;;;;;;7.44;100.00;102451.31;15281503;19;20089;-61
2021/12/13 17:30:50;;;;;;;15.60;8.45;;;;;;;7.45;100.00;102458.34;15290195;19;20017;-61
2021/12/13 17:35:52;;;;;;;17.08;8.30;;;;;;;7.44;100.00;102449.59;15290688;19;20017;-60
2021/12/13 17:40:56;;;;;;;22.42;8.18;;;;;;;7.41;100.00;102449.44;15288066;19;20051;-60
2021/12/13 17:46:04;;;;;;;16.70;8.43;;;;;;;7.41;100.00;102443.34;15287302;19;20019;-60
2021/12/13 17:51:26;;;;;;;17.63;8.27;;;;;;;7.41;100.00;102448.53;15288766;19;20015;-60
2021/12/13 17:56:38;;;;;;;16.15;7.65;;;;;;;7.39;100.00;102455.41;15289107;19;20059;-60
2021/12/13 18:01:44;;;;;;;15.60;8.02;;;;;;;7.40;100.00;102457.16;15287373;19;20035;-60
2021/12/13 18:06:52;;;;;;;13.52;7.30;;;;;;;7.43;100.00;102453.03;15288114;19;20011;-60
2021/12/13 18:12:12;;;;;;;14.48;7.68;;;;;;;7.41;100.00;102449.44;15288153;19;20466;-60
2021/12/13 18:17:29;;;;;;;17.85;7.95;;;;;;;7.50;100.00;102453.38;15285521;19;20022;-59
2021/12/13 18:22:45;;;;;;;16.25;8.13;;;;;;;7.41;100.00;102458.97;15285200;19;20018;-60
2021/12/13 18:28:00;;;;;;;16.95;8.52;;;;;;;7.40;100.00;102449.34;15282930;19;20044;-60
2021/12/13 18:33:23;;;;;;;20.33;8.93;;;;;;;7.42;100.00;102455.56;15281547;19;20033;-60
2021/12/13 18:38:49;;;;;;;18.45;8.02;;;;;;;7.44;100.00;102448.72;15286435;19;20094;-60
2021/12/13 18:44:09;;;;;;;18.38;8.90;;;;;;;7.39;100.00;102445.84;15281292;19;20014;-60
2021/12/13 18:49:18;;;;;;;14.32;8.25;;;;;;;7.41;100.00;102445.94;15285328;19;20018;-60
2021/12/13 18:54:42;;;;;;;18.20;8.17;;;;;;;7.39;100.00;102443.25;15282656;19;20022;-59
2021/12/13 19:00:16;;;;;;;18.38;9.05;;;;;;;7.38;100.00;102451.88;15283194;19;20020;-60
2021/12/13 19:05:33;;;;;;;14.65;8.18;;;;;;;7.36;100.00;102452.63;15180217;19;2004343;-60
2021/12/13 19:10:41;;;;;;;16.23;7.47;;;;;;;7.33;100.00;102445.50;15283652;19;20098;-60
2021/12/13 19:15:44;;;;;;;15.70;7.60;;;;;;;7.36;100.00;102453.50;15298084;19;20014;-60
2021/12/13 19:20:54;;;;;;;16.08;8.05;;;;;;;7.35;100.00;102456.03;15297098;19;20082;-60
2021/12/13 19:25:58;;;;;;;;;;;;;;;7.28;100.00;102446.06;15297472;19;20021;-60
2021/12/13 19:31:03;;;;;;;16.08;7.88;;;;;;;7.28;100.00;102441.75;15296279;19;19983;-59
2021/12/13 19:36:19;;;;;;;16.52;7.72;;;;;;;7.25;100.00;102441.56;15296725;19;20018;-60
2021/12/13 19:41:29;;;;;;;15.75;9.13;;;;;;;7.25;100.00;102447.69;15295599;19;20031;-60
2021/12/13 19:46:46;;;;;;;12.88;7.32;;;;;;;7.28;100.00;102440.84;15294133;19;20014;-60
2021/12/13 19:51:59;;;;;;;13.80;7.55;;;;;;;7.24;100.00;102439.78;15292729;19;20025;-60
2021/12/13 19:57:14;;;;;;;12.75;6.78;;;;;;;7.20;100.00;102430.00;15294283;19;20025;-60
2021/12/13 20:02:29;;;;;;;16.48;7.80;;;;;;;7.19;100.00;102431.69;15292532;19;20486;-59
2021/12/13 20:07:36;;;;;;;17.02;8.13;;;;;;;7.20;100.00;102438.69;15296311;19;20021;-60
2021/12/13 20:12:53;;;;;;;14.48;7.20;;;;;;;7.19;99.57;102423.88;15296343;19;20035;-59
2021/12/13 20:18:03;;;;;;;12.70;7.25;;;;;;;7.21;99.54;102424.88;15295848;19;20021;-60
2021/12/13 20:23:18;;;;;;;13.48;7.35;;;;;;;7.20;99.40;102419.56;15293013;19;20018;-59
2021/12/13 20:28:22;;;;;;;11.63;6.60;;;;;;;7.19;99.51;102426.50;15284200;19;20018;-60
2021/12/13 20:34:07;;;;;;;12.65;6.28;;;;;;;7.17;99.22;102430.69;15288701;19;20072;-60
2021/12/13 20:39:25;;;;;;;12.13;6.63;;;;;;;7.16;99.22;102430.63;15291080;19;20022;-60
2021/12/13 20:44:44;;;;;;;14.07;6.20;;;;;;;7.18;99.17;102429.91;15291403;19;20074;-60
2021/12/13 20:49:50;;;;;;;13.77;6.57;;;;;;;7.22;98.46;102412.72;15294226;19;20550;-60
2021/12/13 20:54:56;;;;;;;15.55;6.90;;;;;;;7.17;98.34;102420.28;15290772;19;20006;-60
2021/12/13 21:00:07;;;;;;;11.93;6.25;;;;;;;7.18;98.36;102414.28;15292914;19;20011;-59
2021/12/13 21:05:15;;;;;;;11.65;6.13;;;;;;;7.24;98.15;102414.59;15287844;19;20015;-60
2021/12/13 21:10:36;;;;;;;11.57;5.78;;;;;;;7.21;97.69;102411.84;15292936;19;20026;-60
2021/12/13 21:15:52;;;;;;;13.63;6.25;;;;;;;7.25;97.78;102406.00;15291010;19;20078;-59
2021/12/13 21:20:59;;;;;;;12.95;6.20;;;;;;;7.25;97.87;102400.78;15290920;19;20024;-60
2021/12/13 21:26:14;;;;;;;13.85;7.05;;;;;;;7.18;97.93;102406.44;15289809;19;20035;-60
2021/12/13 21:31:24;;;;;;;11.32;6.80;;;;;;;7.20;97.79;102416.97;15292271;19;20018;-60
2021/12/13 21:36:34;;;;;;;12.13;6.50;;;;;;;7.19;98.13;102409.94;15290146;19;20018;-60
2021/12/13 21:41:42;;;;;;;14.93;7.72;;;;;;;7.15;97.91;102402.78;15291612;19;20026;-60
2021/12/13 21:46:56;;;;;;;15.35;7.47;;;;;;;7.18;97.81;102398.63;15291731;19;20022;-60
2021/12/13 21:52:13;;;;;;;15.10;7.72;;;;;;;7.24;97.33;102403.31;15290745;19;20094;-60
2021/12/13 21:57:21;;;;;;;14.38;7.03;;;;;;;7.18;97.27;102398.63;15291713;19;20010;-60
2021/12/13 22:02:29;;;;;;;16.10;8.30;;;;;;;7.17;97.67;102406.38;15291331;19;20686;-60
2021/12/13 22:07:36;;;;;;;14.45;7.65;;;;;;;7.17;97.61;102406.38;15288726;19;20014;-60
2021/12/13 22:12:41;;;;;;;21.65;8.35;;;;;;;7.18;97.25;102413.38;15289242;19;20030;-60
2021/12/13 22:17:54;;;;;;;14.68;7.38;;;;;;;7.19;97.72;102416.06;15288402;19;20089;-60
2021/12/13 22:22:58;;;;;;;15.10;8.02;;;;;;;7.19;97.44;102412.53;15285490;19;20018;-60
2021/12/13 22:28:02;;;;;;;17.58;8.35;;;;;;;7.24;97.22;102409.41;15289029;19;20088;-60
2021/12/13 22:33:06;;;;;;;15.20;7.78;;;;;;;7.20;97.31;102412.63;15287310;19;20015;-60
2021/12/13 22:38:15;;;;;;;15.35;8.23;;;;;;;7.18;97.45;102406.44;15288111;19;20014;-60
2021/12/13 22:43:28;;;;;;;15.40;7.55;;;;;;;7.14;97.45;102411.41;15285160;19;20079;-59
2021/12/13 22:48:30;;;;;;;13.50;7.32;;;;;;;7.13;97.49;102404.38;15300483;19;20381;-60
2021/12/13 22:53:32;;;;;;;13.05;7.28;;;;;;;7.12;97.36;102410.44;15300923;19;20022;-60
2021/12/13 22:58:42;;;;;;;12.43;7.88;;;;;;;7.15;97.49;102402.78;15301829;19;20014;-60
2021/12/13 23:03:49;;;;;;;14.93;7.97;;;;;;;7.12;97.09;102398.28;15299536;19;20023;-60
2021/12/13 23:09:07;;;;;;;14.45;8.15;;;;;;;7.14;97.11;102388.84;15302864;19;20556;-60
2021/12/13 23:14:11;;;;;;;15.93;8.52;;;;;;;7.16;96.72;102386.31;15297670;19;20014;-60
2021/12/13 23:19:18;;;;;;;17.77;9.23;;;;;;;7.10;96.92;102397.31;15300832;19;20015;-60
2021/12/13 23:24:22;;;;;;;15.23;8.18;;;;;;;7.10;96.94;102384.28;15296992;19;20090;-59
2021/12/13 23:29:33;;;;;;;13.85;7.97;;;;;;;7.08;97.14;102383.28;15300822;19;20014;-60
2021/12/13 23:34:35;;;;;;;16.50;7.63;;;;;;;7.08;97.20;102372.88;15297977;19;20015;-60
2021/12/13 23:51:11;;;;;;;15.68;7.90;;;;;;;7.08;96.70;102383.28;15288775;19;20239;-60